Time;durP1;ratioP1;P1;durP2;ratioP2;P2;SDS_P1;SDS_P2;PMS_P1;PMS_P2;Temp;Humidity;BMP_temperature;BMP_pressure;BME280_temperature;BME280_humidity;BME280_pressure;Samples;Min_cycle;Max_cycle;Signal;HPM_P1;HPM_P2
2022/11/14 00:02:15;;;;;;;46.28;22.80;;;;;;;;;;5082726;28;20043;-70
2022/11/14 00:04:46;;;;;;;50.50;22.95;;;;;;;;;;5082606;28;20141;-70
2022/11/14 00:07:13;;;;;;;47.90;22.50;;;;;;;;;;5081636;28;20048;-70
2022/11/14 00:09:41;;;;;;;50.30;22.90;;;;;;;;;;5081604;28;20048;-70
2022/11/14 00:12:09;;;;;;;45.45;21.70;;;;;;;;;;5080029;28;20036;-70
2022/11/14 00:14:36;;;;;;;46.45;21.60;;;;;;;;;;5079795;28;20055;-70
2022/11/14 00:17:04;;;;;;;52.25;23.15;;;;;;;;;;5078427;28;20044;-70
2022/11/14 00:19:33;;;;;;;52.08;22.08;;;;;;;;;;5080862;28;20056;-69
2022/11/14 00:22:00;;;;;;;49.75;22.23;;;;;;;;;;5083748;28;20474;-70
2022/11/14 00:24:27;;;;;;;44.95;22.30;;;;;;;;;;5080929;28;20067;-70
2022/11/14 00:26:54;;;;;;;53.25;22.90;;;;;;;;;;5083769;28;20086;-70
2022/11/14 00:29:21;;;;;;;57.50;23.10;;;;;;;;;;5080192;28;20044;-70
2022/11/14 00:31:49;;;;;;;57.25;23.55;;;;;;;;;;5085329;28;20048;-70
2022/11/14 00:34:16;;;;;;;53.38;23.48;;;;;;;;;;5083805;28;20079;-70
2022/11/14 00:36:45;;;;;;;58.80;24.35;;;;;;;;;;5085595;28;20060;-69
2022/11/14 00:39:13;;;;;;;53.00;23.77;;;;;;;;;;5076289;28;20055;-71
2022/11/14 00:41:40;;;;;;;54.67;23.48;;;;;;;;;;5078624;28;20052;-70
2022/11/14 00:44:07;;;;;;;55.92;23.48;;;;;;;;;;5079555;28;20041;-70
2022/11/14 00:46:34;;;;;;;56.22;23.25;;;;;;;;;;5059295;28;20049;-70
2022/11/14 00:49:02;;;;;;;57.15;23.15;;;;;;;;;;5035798;28;1129322;-70
2022/11/14 00:51:29;;;;;;;49.78;22.13;;;;;;;;;;5072579;28;20053;-70
2022/11/14 00:53:58;;;;;;;55.25;22.52;;;;;;;;;;5083042;28;20048;-71
2022/11/14 00:56:25;;;;;;;54.85;23.40;;;;;;;;;;5084505;28;20117;-70
2022/11/14 00:58:52;;;;;;;49.50;21.65;;;;;;;;;;5083666;28;20052;-70
2022/11/14 01:01:19;;;;;;;45.45;21.70;;;;;;;;;;5082469;28;20054;-69
2022/11/14 01:03:48;;;;;;;43.85;21.60;;;;;;;;;;5074464;28;20126;-70
2022/11/14 01:06:15;;;;;;;52.05;22.15;;;;;;;;;;5082673;28;20051;-70
2022/11/14 01:08:43;;;;;;;52.78;22.63;;;;;;;;;;5086189;28;20059;-69
2022/11/14 01:11:12;;;;;;;48.28;22.20;;;;;;;;;;5083554;28;20044;-70
2022/11/14 01:13:40;;;;;;;54.08;21.98;;;;;;;;;;5081350;28;20040;-70
2022/11/14 01:16:08;;;;;;;56.88;24.00;;;;;;;;;;5083044;28;20051;-70
2022/11/14 01:18:35;;;;;;;49.55;22.15;;;;;;;;;;5065716;28;20048;-70
2022/11/14 01:21:05;;;;;;;48.95;21.98;;;;;;;;;;5081978;28;20048;-70
2022/11/14 01:23:33;;;;;;;47.72;20.75;;;;;;;;;;5084629;28;20582;-70
2022/11/14 01:26:03;;;;;;;47.35;21.42;;;;;;;;;;5078413;28;20419;-70
2022/11/14 01:28:31;;;;;;;43.00;21.70;;;;;;;;;;5081357;28;20669;-70
2022/11/14 01:31:07;;;;;;;44.10;21.63;;;;;;;;;;5083915;28;20054;-70
2022/11/14 01:33:35;;;;;;;46.60;22.15;;;;;;;;;;5085734;28;20051;-70
2022/11/14 01:36:02;;;;;;;45.70;21.75;;;;;;;;;;5066864;28;20052;-70
2022/11/14 01:38:29;;;;;;;50.80;22.08;;;;;;;;;;5083325;28;20040;-70
2022/11/14 01:40:56;;;;;;;47.00;22.55;;;;;;;;;;5078107;28;20535;-70
2022/11/14 01:43:25;;;;;;;42.22;22.25;;;;;;;;;;5083060;28;20048;-70
2022/11/14 01:45:54;;;;;;;40.45;20.90;;;;;;;;;;5080220;28;20071;-70
2022/11/14 01:48:23;;;;;;;48.10;23.58;;;;;;;;;;5081156;28;20056;-70
2022/11/14 01:50:54;;;;;;;41.55;22.20;;;;;;;;;;5082672;28;20048;-70
2022/11/14 01:53:21;;;;;;;48.08;22.58;;;;;;;;;;5080730;28;20055;-70
2022/11/14 01:55:48;;;;;;;51.78;23.63;;;;;;;;;;5081094;28;20052;-70
2022/11/14 01:58:16;;;;;;;48.20;22.77;;;;;;;;;;5080540;28;20626;-70
2022/11/14 02:00:44;;;;;;;43.38;21.73;;;;;;;;;;5078348;28;20514;-70
2022/11/14 02:03:14;;;;;;;45.60;21.33;;;;;;;;;;5082868;28;20047;-70
2022/11/14 02:05:41;;;;;;;45.58;22.83;;;;;;;;;;5085377;28;20726;-70
2022/11/14 02:08:10;;;;;;;42.33;21.60;;;;;;;;;;5084851;28;20063;-70
2022/11/14 02:10:38;;;;;;;41.40;21.67;;;;;;;;;;5082713;28;20481;-70
2022/11/14 02:13:05;;;;;;;38.17;21.23;;;;;;;;;;5082300;28;20093;-70
2022/11/14 02:15:33;;;;;;;42.08;22.23;;;;;;;;;;5072729;28;20311;-70
2022/11/14 02:18:00;;;;;;;39.95;21.25;;;;;;;;;;5084390;28;20070;-70
2022/11/14 02:20:31;;;;;;;39.63;20.88;;;;;;;;;;5083255;28;20055;-70
2022/11/14 02:22:59;;;;;;;37.42;20.67;;;;;;;;;;5083607;28;20052;-70
2022/11/14 02:25:26;;;;;;;37.22;20.98;;;;;;;;;;5080579;28;20387;-71
2022/11/14 02:27:54;;;;;;;40.92;21.90;;;;;;;;;;5082091;28;20418;-70
2022/11/14 02:30:22;;;;;;;38.83;21.70;;;;;;;;;;5083673;28;20051;-70
2022/11/14 02:32:50;;;;;;;39.35;21.23;;;;;;;;;;5084530;28;20507;-71
2022/11/14 02:35:17;;;;;;;42.95;22.65;;;;;;;;;;5083453;28;20067;-70
2022/11/14 02:37:45;;;;;;;40.08;22.17;;;;;;;;;;5076231;28;20051;-70
2022/11/14 02:40:13;;;;;;;39.83;21.45;;;;;;;;;;5078718;28;20044;-71
2022/11/14 02:42:40;;;;;;;39.83;23.45;;;;;;;;;;5076604;28;20044;-70
2022/11/14 02:45:08;;;;;;;47.70;23.00;;;;;;;;;;5084135;28;20048;-70
2022/11/14 02:47:35;;;;;;;40.92;22.70;;;;;;;;;;5084134;28;20605;-70
2022/11/14 02:50:02;;;;;;;44.10;24.35;;;;;;;;;;5083713;28;20052;-70
2022/11/14 02:52:30;;;;;;;39.90;21.95;;;;;;;;;;5081210;28;20052;-70
2022/11/14 02:54:58;;;;;;;42.42;22.80;;;;;;;;;;5078797;28;20041;-70
2022/11/14 02:57:25;;;;;;;48.70;23.92;;;;;;;;;;5064829;28;20052;-70
2022/11/14 02:59:53;;;;;;;46.83;23.92;;;;;;;;;;5081670;28;20051;-70
2022/11/14 03:02:20;;;;;;;47.13;24.58;;;;;;;;;;5075863;28;20059;-70
2022/11/14 03:04:47;;;;;;;43.88;23.92;;;;;;;;;;5082090;28;20058;-70
2022/11/14 03:07:14;;;;;;;45.47;24.20;;;;;;;;;;5066629;28;20051;-70
2022/11/14 03:09:42;;;;;;;45.40;24.85;;;;;;;;;;5066285;28;20044;-70
2022/11/14 03:12:10;;;;;;;49.10;24.80;;;;;;;;;;5079027;28;20130;-71
2022/11/14 03:14:37;;;;;;;44.38;24.70;;;;;;;;;;5082290;28;20051;-70
2022/11/14 03:17:05;;;;;;;47.58;25.38;;;;;;;;;;5062095;28;20044;-70
2022/11/14 03:19:32;;;;;;;52.85;27.45;;;;;;;;;;5077272;28;20052;-70
2022/11/14 03:21:59;;;;;;;55.40;27.50;;;;;;;;;;5084419;28;20391;-70
2022/11/14 03:24:26;;;;;;;50.60;26.67;;;;;;;;;;5082513;28;20051;-70
2022/11/14 03:26:53;;;;;;;52.72;27.23;;;;;;;;;;5079505;28;20141;-70
2022/11/14 03:29:22;;;;;;;51.17;27.45;;;;;;;;;;5085042;28;20494;-70
2022/11/14 03:31:49;;;;;;;48.20;26.40;;;;;;;;;;5070582;28;20059;-70
2022/11/14 03:34:17;;;;;;;55.22;28.83;;;;;;;;;;5059505;28;20066;-70
2022/11/14 03:36:44;;;;;;;52.53;27.98;;;;;;;;;;5081192;28;20549;-70
2022/11/14 03:39:11;;;;;;;63.00;31.88;;;;;;;;;;5078749;28;20058;-70
2022/11/14 03:41:38;;;;;;;59.70;31.05;;;;;;;;;;5086046;28;20044;-70
2022/11/14 03:44:05;;;;;;;59.90;31.67;;;;;;;;;;5066969;28;20036;-70
2022/11/14 03:46:34;;;;;;;63.63;32.10;;;;;;;;;;5081265;28;20048;-71
2022/11/14 03:49:01;;;;;;;62.67;33.67;;;;;;;;;;5076611;28;20052;-70
2022/11/14 03:51:28;;;;;;;70.72;36.35;;;;;;;;;;5085467;28;20047;-70
2022/11/14 03:53:56;;;;;;;68.95;36.85;;;;;;;;;;5082599;28;20040;-71
2022/11/14 03:56:23;;;;;;;72.43;36.03;;;;;;;;;;5082641;28;20130;-70
2022/11/14 03:58:50;;;;;;;70.88;35.30;;;;;;;;;;5086029;28;20048;-70
2022/11/14 04:01:17;;;;;;;70.00;34.85;;;;;;;;;;5081917;28;20077;-70
2022/11/14 04:03:46;;;;;;;67.50;35.03;;;;;;;;;;5081758;28;20056;-70
2022/11/14 04:06:14;;;;;;;73.53;35.85;;;;;;;;;;5081529;28;20407;-70
2022/11/14 04:08:41;;;;;;;71.72;36.40;;;;;;;;;;5085301;28;20064;-70
2022/11/14 04:11:08;;;;;;;75.90;36.58;;;;;;;;;;5086613;28;20047;-70
2022/11/14 04:13:35;;;;;;;73.25;37.28;;;;;;;;;;5066780;28;20056;-70
2022/11/14 04:16:03;;;;;;;74.47;37.38;;;;;;;;;;5086873;28;20048;-70
2022/11/14 04:18:30;;;;;;;75.45;38.20;;;;;;;;;;5083589;28;20471;-70
2022/11/14 04:20:59;;;;;;;75.80;38.08;;;;;;;;;;5066693;28;20082;-70
2022/11/14 04:23:26;;;;;;;80.38;38.17;;;;;;;;;;5087152;28;20801;-70
2022/11/14 04:25:53;;;;;;;76.85;36.60;;;;;;;;;;5069170;28;20442;-70
2022/11/14 04:28:20;;;;;;;76.63;37.42;;;;;;;;;;5086651;28;20048;-70
2022/11/14 04:30:48;;;;;;;78.45;38.47;;;;;;;;;;5084016;28;20052;-70
2022/11/14 04:33:15;;;;;;;73.22;35.85;;;;;;;;;;5080658;28;20052;-70
2022/11/14 04:35:42;;;;;;;79.35;38.38;;;;;;;;;;5082709;28;20051;-70
2022/11/14 04:38:11;;;;;;;80.45;38.00;;;;;;;;;;5084921;28;20048;-70
2022/11/14 04:40:38;;;;;;;77.95;37.05;;;;;;;;;;5085720;28;20047;-69
2022/11/14 04:43:06;;;;;;;76.85;37.15;;;;;;;;;;5083590;28;20040;-70
2022/11/14 04:45:33;;;;;;;76.85;36.67;;;;;;;;;;5084431;28;20048;-70
2022/11/14 04:48:00;;;;;;;71.18;35.78;;;;;;;;;;5085220;28;20052;-69
2022/11/14 04:50:27;;;;;;;81.78;38.03;;;;;;;;;;5086180;28;20052;-70
2022/11/14 04:52:55;;;;;;;77.70;37.58;;;;;;;;;;5086193;28;20642;-70
2022/11/14 04:55:23;;;;;;;75.65;36.85;;;;;;;;;;5086493;28;20056;-70
2022/11/14 04:57:54;;;;;;;78.10;37.08;;;;;;;;;;5085246;28;20040;-70
2022/11/14 05:00:22;;;;;;;76.00;38.65;;;;;;;;;;5083806;28;20079;-71
2022/11/14 05:02:49;;;;;;;72.15;37.50;;;;;;;;;;5079812;28;20729;-70
2022/11/14 05:05:17;;;;;;;82.18;38.92;;;;;;;;;;5084225;28;20052;-71
2022/11/14 05:07:44;;;;;;;75.85;38.28;;;;;;;;;;5082111;28;20044;-70
2022/11/14 05:10:11;;;;;;;73.57;37.38;;;;;;;;;;5083476;28;20119;-70
2022/11/14 05:12:40;;;;;;;74.18;37.00;;;;;;;;;;5085906;28;20048;-70
2022/11/14 05:15:07;;;;;;;79.03;37.25;;;;;;;;;;5066468;28;20068;-69
2022/11/14 05:17:35;;;;;;;76.70;37.95;;;;;;;;;;5086144;28;20056;-69
2022/11/14 05:20:02;;;;;;;82.70;37.88;;;;;;;;;;5084521;28;20048;-70
2022/11/14 05:22:29;;;;;;;77.78;36.85;;;;;;;;;;5078357;28;20063;-70
2022/11/14 05:24:56;;;;;;;79.10;38.58;;;;;;;;;;5082651;28;20048;-70
2022/11/14 05:27:23;;;;;;;76.32;37.05;;;;;;;;;;5074801;28;20051;-70
2022/11/14 05:29:54;;;;;;;73.97;37.15;;;;;;;;;;5083223;28;20047;-70
2022/11/14 05:32:21;;;;;;;74.10;38.30;;;;;;;;;;5075494;28;20130;-71
2022/11/14 05:34:48;;;;;;;78.03;38.00;;;;;;;;;;5080022;28;20052;-70
2022/11/14 05:37:15;;;;;;;85.90;40.60;;;;;;;;;;5081722;28;20052;-70
2022/11/14 05:39:42;;;;;;;75.55;38.03;;;;;;;;;;5082820;28;20427;-70
2022/11/14 05:42:10;;;;;;;78.00;38.03;;;;;;;;;;5084919;28;20055;-70
2022/11/14 05:44:37;;;;;;;75.32;37.10;;;;;;;;;;5082403;28;20052;-70
2022/11/14 05:47:06;;;;;;;77.93;38.00;;;;;;;;;;5081699;28;20048;-70
2022/11/14 05:49:33;;;;;;;75.30;37.83;;;;;;;;;;5081560;28;20406;-70
2022/11/14 05:52:00;;;;;;;68.38;35.50;;;;;;;;;;5085406;28;20054;-70
2022/11/14 05:54:27;;;;;;;76.78;36.53;;;;;;;;;;5060051;28;20062;-71
2022/11/14 05:56:54;;;;;;;77.88;38.20;;;;;;;;;;5065444;28;20059;-69
2022/11/14 05:59:22;;;;;;;73.63;35.75;;;;;;;;;;5059548;28;20396;-70
2022/11/14 06:01:49;;;;;;;76.05;37.22;;;;;;;;;;5061794;28;20048;-70
2022/11/14 06:04:17;;;;;;;75.55;37.28;;;;;;;;;;5082627;28;20051;-70
2022/11/14 06:06:45;;;;;;;73.95;36.83;;;;;;;;;;5066407;28;20614;-70
2022/11/14 06:09:12;;;;;;;78.28;38.20;;;;;;;;;;5062635;28;20055;-71
2022/11/14 06:11:39;;;;;;;83.50;38.28;;;;;;;;;;5079963;28;20061;-71
2022/11/14 06:14:07;;;;;;;72.30;36.17;;;;;;;;;;5065054;28;20056;-70
2022/11/14 06:16:34;;;;;;;73.97;36.63;;;;;;;;;;5083691;28;20047;-70
2022/11/14 06:19:01;;;;;;;75.03;35.13;;;;;;;;;;5084044;28;20048;-71
2022/11/14 06:21:30;;;;;;;75.88;37.45;;;;;;;;;;5084007;28;20059;-70
2022/11/14 06:23:57;;;;;;;71.10;35.03;;;;;;;;;;5080135;28;20052;-71
2022/11/14 06:26:25;;;;;;;77.28;36.95;;;;;;;;;;5079642;28;20048;-71
2022/11/14 06:28:53;;;;;;;74.55;37.25;;;;;;;;;;5076298;28;20095;-71
2022/11/14 06:31:21;;;;;;;74.38;36.10;;;;;;;;;;5079293;28;20044;-70
2022/11/14 06:33:48;;;;;;;65.72;34.15;;;;;;;;;;5064440;28;20052;-69
2022/11/14 06:36:15;;;;;;;75.82;36.58;;;;;;;;;;5077854;28;20545;-71
2022/11/14 06:38:44;;;;;;;74.25;37.53;;;;;;;;;;5082496;28;20044;-72
2022/11/14 06:41:13;;;;;;;72.30;37.10;;;;;;;;;;5058335;28;20045;-69
2022/11/14 06:43:41;;;;;;;72.18;35.92;;;;;;;;;;5079979;28;20048;-71
2022/11/14 06:46:09;;;;;;;74.30;36.03;;;;;;;;;;5054712;28;20758;-70
2022/11/14 06:48:36;;;;;;;77.65;36.70;;;;;;;;;;5074978;28;20491;-70
2022/11/14 06:51:04;;;;;;;75.10;35.90;;;;;;;;;;5042444;28;20056;-70
2022/11/14 06:53:32;;;;;;;75.15;35.20;;;;;;;;;;5039495;28;20045;-70
2022/11/14 06:56:01;;;;;;;71.88;35.97;;;;;;;;;;5045770;28;20045;-70
2022/11/14 06:58:29;;;;;;;74.50;34.08;;;;;;;;;;5047390;28;20102;-70
2022/11/14 07:00:57;;;;;;;72.47;35.13;;;;;;;;;;5048732;28;20766;-70
2022/11/14 07:03:24;;;;;;;71.15;34.97;;;;;;;;;;5046223;28;20076;-70
2022/11/14 07:05:51;;;;;;;72.13;36.28;;;;;;;;;;5046201;28;20057;-70
2022/11/14 07:08:18;;;;;;;72.65;36.88;;;;;;;;;;5046783;28;20048;-70
2022/11/14 07:10:45;;;;;;;71.95;35.85;;;;;;;;;;5046325;28;20053;-70
2022/11/14 07:13:14;;;;;;;70.75;35.72;;;;;;;;;;5046664;28;20040;-70
2022/11/14 07:15:49;;;;;;;74.32;37.00;;;;;;;;;;5037187;28;20485;-70
2022/11/14 07:18:17;;;;;;;70.03;35.53;;;;;;;;;;5043150;28;20115;-70
2022/11/14 07:20:44;;;;;;;71.78;35.53;;;;;;;;;;5041662;28;20057;-71
2022/11/14 07:23:11;;;;;;;66.10;34.90;;;;;;;;;;5046941;28;20052;-70
2022/11/14 07:25:38;;;;;;;70.88;36.08;;;;;;;;;;5038917;28;20100;-70
2022/11/14 07:28:05;;;;;;;66.30;34.85;;;;;;;;;;5035805;28;20061;-70
2022/11/14 07:30:34;;;;;;;68.10;35.33;;;;;;;;;;5041946;28;20044;-70
2022/11/14 07:33:02;;;;;;;68.88;35.42;;;;;;;;;;5043495;28;20060;-70
2022/11/14 07:35:29;;;;;;;69.10;35.20;;;;;;;;;;5043714;28;20393;-70
2022/11/14 07:38:02;;;;;;;68.43;34.60;;;;;;;;;;5039741;28;20044;-70
2022/11/14 07:40:29;;;;;;;67.77;34.47;;;;;;;;;;5036684;28;20132;-70
2022/11/14 07:42:59;;;;;;;71.88;35.80;;;;;;;;;;5041213;28;20057;-70
2022/11/14 07:45:26;;;;;;;68.45;35.72;;;;;;;;;;5042769;28;20057;-70
2022/11/14 07:47:56;;;;;;;71.97;34.80;;;;;;;;;;5045888;28;20136;-70
2022/11/14 07:50:24;;;;;;;63.85;33.67;;;;;;;;;;5074206;28;20537;-70
2022/11/14 07:52:52;;;;;;;71.43;35.22;;;;;;;;;;5082842;28;20491;-70
2022/11/14 07:55:19;;;;;;;71.43;35.55;;;;;;;;;;5083482;28;20059;-70
2022/11/14 07:57:47;;;;;;;67.03;35.10;;;;;;;;;;5084291;28;20105;-70
2022/11/14 08:00:15;;;;;;;66.85;34.05;;;;;;;;;;5085949;28;20515;-70
2022/11/14 08:02:43;;;;;;;70.05;36.08;;;;;;;;;;5082254;28;20487;-70
2022/11/14 08:05:11;;;;;;;65.68;35.58;;;;;;;;;;5081937;28;20036;-70
2022/11/14 08:07:38;;;;;;;68.05;35.60;;;;;;;;;;5082577;28;20135;-70
2022/11/14 08:10:06;;;;;;;72.32;35.92;;;;;;;;;;5085929;28;20048;-70
2022/11/14 08:12:33;;;;;;;73.38;36.45;;;;;;;;;;5085996;28;20055;-70
2022/11/14 08:15:01;;;;;;;74.20;36.58;;;;;;;;;;5078216;28;20051;-70
2022/11/14 08:17:28;;;;;;;76.57;36.47;;;;;;;;;;5086641;28;20063;-70
2022/11/14 08:19:55;;;;;;;69.75;35.92;;;;;;;;;;5067396;28;20052;-70
2022/11/14 08:22:24;;;;;;;73.05;35.83;;;;;;;;;;5061989;28;20052;-70
2022/11/14 08:24:51;;;;;;;72.85;35.97;;;;;;;;;;5084430;28;20044;-70
2022/11/14 08:27:18;;;;;;;73.85;36.67;;;;;;;;;;5087293;28;20052;-70
2022/11/14 08:29:45;;;;;;;72.80;35.03;;;;;;;;;;5084635;28;20428;-70
2022/11/14 08:32:14;;;;;;;69.72;34.38;;;;;;;;;;5082640;28;20067;-71
2022/11/14 08:34:41;;;;;;;70.50;35.85;;;;;;;;;;5061811;28;20102;-70
2022/11/14 08:37:08;;;;;;;63.97;32.88;;;;;;;;;;5063301;28;20070;-70
2022/11/14 08:39:37;;;;;;;71.47;34.17;;;;;;;;;;5084420;28;20511;-70
2022/11/14 08:42:04;;;;;;;66.85;32.20;;;;;;;;;;5084732;28;20048;-70
2022/11/14 08:44:31;;;;;;;66.40;33.15;;;;;;;;;;5064092;28;20052;-70
2022/11/14 08:46:59;;;;;;;66.10;33.10;;;;;;;;;;5082027;28;20085;-70
2022/11/14 08:49:26;;;;;;;68.13;33.67;;;;;;;;;;5082702;28;20048;-70
2022/11/14 08:51:53;;;;;;;77.45;35.85;;;;;;;;;;5084182;28;20398;-70
2022/11/14 08:54:21;;;;;;;75.13;34.17;;;;;;;;;;5085796;28;20052;-70
2022/11/14 08:56:49;;;;;;;66.88;33.72;;;;;;;;;;5064875;28;20074;-70
2022/11/14 08:59:17;;;;;;;74.63;34.70;;;;;;;;;;5083460;28;20047;-70
2022/11/14 09:01:44;;;;;;;72.70;33.88;;;;;;;;;;5079537;28;20150;-70
2022/11/14 09:04:11;;;;;;;74.70;36.03;;;;;;;;;;5062349;28;20553;-71
2022/11/14 09:06:38;;;;;;;76.43;34.60;;;;;;;;;;5064844;28;20059;-70
2022/11/14 09:09:06;;;;;;;68.63;34.42;;;;;;;;;;5086635;28;20066;-70
2022/11/14 09:11:33;;;;;;;71.10;34.65;;;;;;;;;;5084169;28;20479;-70
2022/11/14 09:14:01;;;;;;;69.82;33.35;;;;;;;;;;5081337;28;20055;-70
2022/11/14 09:16:29;;;;;;;70.10;33.70;;;;;;;;;;5077897;28;20044;-70
2022/11/14 09:18:56;;;;;;;71.13;34.30;;;;;;;;;;5080974;28;20208;-70
2022/11/14 09:21:23;;;;;;;71.03;35.35;;;;;;;;;;5082666;28;20051;-70
2022/11/14 09:23:50;;;;;;;68.30;34.47;;;;;;;;;;5076762;28;20044;-71
2022/11/14 09:26:18;;;;;;;66.45;34.70;;;;;;;;;;5064064;28;20063;-70
2022/11/14 09:28:45;;;;;;;66.97;33.58;;;;;;;;;;5085211;28;20051;-70
2022/11/14 09:31:15;;;;;;;67.05;33.10;;;;;;;;;;5077945;28;20047;-70
2022/11/14 09:33:42;;;;;;;68.00;33.25;;;;;;;;;;5064173;28;20056;-70
2022/11/14 09:36:14;;;;;;;62.72;31.85;;;;;;;;;;5082054;28;20051;-70
2022/11/14 09:38:43;;;;;;;70.80;33.10;;;;;;;;;;5081486;28;20075;-70
2022/11/14 09:41:28;;;;;;;64.90;32.55;;;;;;;;;;5054620;28;20089;-71
2022/11/14 09:44:06;;;;;;;61.47;31.65;;;;;;;;;;5082000;28;20052;-71
2022/11/14 09:46:38;;;;;;;66.78;32.20;;;;;;;;;;5079843;28;20975;-69
2022/11/14 09:49:09;;;;;;;66.70;32.90;;;;;;;;;;5079304;28;20043;-71
2022/11/14 09:51:40;;;;;;;68.18;33.22;;;;;;;;;;5079184;28;20047;-70
2022/11/14 09:54:11;;;;;;;66.18;33.05;;;;;;;;;;5083145;28;20056;-71
2022/11/14 09:56:38;;;;;;;63.88;33.50;;;;;;;;;;5076641;28;20121;-71
2022/11/14 09:59:09;;;;;;;64.25;33.42;;;;;;;;;;5077583;28;20059;-70
2022/11/14 10:01:45;;;;;;;67.75;32.53;;;;;;;;;;5080502;28;20048;-70
2022/11/14 10:04:16;;;;;;;57.92;30.38;;;;;;;;;;5080848;28;20055;-71
2022/11/14 10:06:47;;;;;;;58.17;30.50;;;;;;;;;;5059194;28;20051;-70
2022/11/14 10:09:25;;;;;;;60.22;31.52;;;;;;;;;;5063659;28;20052;-71
2022/11/14 10:11:56;;;;;;;61.90;30.73;;;;;;;;;;5077336;28;20055;-70
2022/11/14 10:14:44;;;;;;;54.40;29.02;;;;;;;;;;5083397;28;20047;-70
2022/11/14 10:17:22;;;;;;;54.45;29.45;;;;;;;;;;5073125;28;20473;-71
2022/11/14 10:19:54;;;;;;;56.35;30.45;;;;;;;;;;5081461;28;20051;-70
2022/11/14 10:22:27;;;;;;;56.50;30.13;;;;;;;;;;5081832;28;20414;-71
2022/11/14 10:25:04;;;;;;;56.03;30.00;;;;;;;;;;5063916;28;20048;-71
2022/11/14 10:27:34;;;;;;;53.70;28.77;;;;;;;;;;5079788;28;20643;-71
2022/11/14 10:30:04;;;;;;;52.72;28.08;;;;;;;;;;5063866;28;20062;-71
2022/11/14 10:32:38;;;;;;;58.70;30.30;;;;;;;;;;5084167;28;20569;-70
2022/11/14 10:35:08;;;;;;;57.42;29.35;;;;;;;;;;5087480;28;20102;-70
2022/11/14 10:37:38;;;;;;;55.88;28.98;;;;;;;;;;5084504;28;20942;-70
2022/11/14 10:40:14;;;;;;;55.03;29.40;;;;;;;;;;5084498;28;20052;-71
2022/11/14 10:42:43;;;;;;;55.58;30.45;;;;;;;;;;5082433;28;20055;-71
2022/11/14 10:45:17;;;;;;;50.60;27.23;;;;;;;;;;5065348;28;20052;-70
2022/11/14 10:47:47;;;;;;;55.28;28.35;;;;;;;;;;5083714;28;20730;-70
2022/11/14 10:50:17;;;;;;;53.55;29.55;;;;;;;;;;5084295;28;20507;-70
2022/11/14 10:52:45;;;;;;;54.35;29.77;;;;;;;;;;5084051;28;20479;-71
2022/11/14 10:55:14;;;;;;;53.13;29.48;;;;;;;;;;5087844;28;20047;-71
2022/11/14 10:57:42;;;;;;;52.70;28.65;;;;;;;;;;5083728;28;20130;-70
2022/11/14 11:00:12;;;;;;;54.15;28.88;;;;;;;;;;5069979;28;20063;-70
2022/11/14 11:02:51;;;;;;;54.53;27.33;;;;;;;;;;5085310;28;20044;-71
2022/11/14 11:05:19;;;;;;;47.83;27.08;;;;;;;;;;5086822;28;20558;-71
2022/11/14 11:13:30;;;;;;;50.13;26.70;;;;;;;;;;5083466;28;20051;-71
2022/11/14 11:15:59;;;;;;;47.28;26.42;;;;;;;;;;5081160;28;20052;-71
2022/11/14 11:18:29;;;;;;;47.33;25.98;;;;;;;;;;5085569;28;20052;-71
2022/11/14 11:21:03;;;;;;;45.17;25.23;;;;;;;;;;5085375;28;20074;-71
2022/11/14 11:23:31;;;;;;;44.90;24.98;;;;;;;;;;5077907;28;20055;-71
2022/11/14 11:26:04;;;;;;;44.90;25.25;;;;;;;;;;5084613;28;20406;-71
2022/11/14 11:28:31;;;;;;;;;;;;;;;;;;5085717;28;20048;-70
2022/11/14 11:30:59;;;;;;;46.05;24.67;;;;;;;;;;5083807;28;19931;-71
2022/11/14 11:33:28;;;;;;;42.35;24.73;;;;;;;;;;5082905;28;20052;-70
2022/11/14 11:35:57;;;;;;;46.85;25.45;;;;;;;;;;5067562;28;20117;-70
2022/11/14 11:38:26;;;;;;;43.80;24.27;;;;;;;;;;5083881;28;20635;-70
2022/11/14 11:40:55;;;;;;;42.72;24.00;;;;;;;;;;5084722;28;20066;-71
2022/11/14 11:43:27;;;;;;;42.67;24.00;;;;;;;;;;5082388;28;20054;-70
2022/11/14 11:45:55;;;;;;;39.80;23.63;;;;;;;;;;5084336;28;20695;-71
2022/11/14 11:48:23;;;;;;;44.30;25.10;;;;;;;;;;5060251;28;20056;-70
2022/11/14 11:50:50;;;;;;;44.40;25.00;;;;;;;;;;5080168;28;20067;-70
2022/11/14 11:53:23;;;;;;;46.10;25.60;;;;;;;;;;5068010;28;20456;-71
2022/11/14 11:55:51;;;;;;;46.10;24.98;;;;;;;;;;5083113;28;20055;-70
2022/11/14 11:58:22;;;;;;;43.78;24.23;;;;;;;;;;5085541;28;20697;-71
2022/11/14 12:00:53;;;;;;;43.30;23.67;;;;;;;;;;5083078;28;20051;-70
2022/11/14 12:03:21;;;;;;;44.90;24.75;;;;;;;;;;5082544;28;20055;-71
2022/11/14 12:05:53;;;;;;;41.08;23.70;;;;;;;;;;5080507;28;20137;-71
2022/11/14 12:08:27;;;;;;;41.67;23.87;;;;;;;;;;5086211;28;20608;-71
2022/11/14 12:10:54;;;;;;;42.03;23.63;;;;;;;;;;5084645;28;20044;-71
2022/11/14 12:13:36;;;;;;;40.80;23.80;;;;;;;;;;5078944;28;20052;-71
2022/11/14 12:16:14;;;;;;;44.83;24.33;;;;;;;;;;5081976;28;20044;-71
2022/11/14 12:18:52;;;;;;;40.92;23.25;;;;;;;;;;5085548;28;20059;-70
2022/11/14 12:21:26;;;;;;;41.97;24.25;;;;;;;;;;5083603;28;20368;-71
2022/11/14 12:23:53;;;;;;;;;;;;;;;;;;5080235;28;20052;-71
2022/11/14 12:26:29;;;;;;;41.78;24.38;;;;;;;;;;5080618;28;19924;-70
2022/11/14 12:29:03;;;;;;;41.22;23.52;;;;;;;;;;5081348;28;20044;-70
2022/11/14 12:31:34;;;;;;;43.95;24.45;;;;;;;;;;5083239;28;20055;-71
2022/11/14 12:34:03;;;;;;;44.00;24.17;;;;;;;;;;5086349;28;20052;-71
2022/11/14 12:36:31;;;;;;;47.78;24.13;;;;;;;;;;5079175;28;20054;-71
2022/11/14 12:38:59;;;;;;;40.45;24.02;;;;;;;;;;5082398;28;20062;-70
2022/11/14 12:41:29;;;;;;;42.38;24.38;;;;;;;;;;5078041;28;20048;-71
2022/11/14 12:44:11;;;;;;;44.40;24.27;;;;;;;;;;5086725;28;20051;-70
2022/11/14 12:46:53;;;;;;;44.28;23.48;;;;;;;;;;5082975;28;20064;-70
2022/11/14 12:49:39;;;;;;;43.97;24.48;;;;;;;;;;5080029;28;20896;-70
2022/11/14 12:52:27;;;;;;;42.30;24.42;;;;;;;;;;5082429;28;20036;-71
2022/11/14 12:54:54;;;;;;;43.88;24.67;;;;;;;;;;5064556;28;20056;-71
2022/11/14 13:00:12;;;;;;;44.35;25.33;;;;;;;;;;5081870;28;20052;-71
2022/11/14 13:03:05;;;;;;;41.13;24.92;;;;;;;;;;5073374;28;20048;-70
2022/11/14 13:05:48;;;;;;;43.70;24.17;;;;;;;;;;5079919;28;20059;-71
2022/11/14 13:08:22;;;;;;;47.50;24.67;;;;;;;;;;5080870;28;20048;-71
2022/11/14 13:10:49;;;;;;;45.00;25.20;;;;;;;;;;5079135;28;20059;-71
2022/11/14 13:22:19;;;;;;;43.72;24.75;;;;;;;;;;5078266;28;20118;-70
2022/11/14 13:25:05;;;;;;;41.70;23.67;;;;;;;;;;5082673;28;20052;-70
2022/11/14 13:27:33;;;;;;;41.83;23.90;;;;;;;;;;5076634;28;20052;-70
2022/11/14 13:30:06;;;;;;;39.22;23.83;;;;;;;;;;5078963;28;20056;-70
2022/11/14 13:32:48;;;;;;;46.75;25.65;;;;;;;;;;5077778;28;20526;-70
2022/11/14 13:35:17;;;;;;;43.15;23.45;;;;;;;;;;5077486;28;20052;-70
2022/11/14 13:37:53;;;;;;;40.13;23.40;;;;;;;;;;5080477;28;20483;-70
2022/11/14 13:40:24;;;;;;;37.60;22.80;;;;;;;;;;5078193;28;20056;-71
2022/11/14 13:42:54;;;;;;;38.85;23.92;;;;;;;;;;5076558;28;20075;-71
2022/11/14 13:45:33;;;;;;;40.88;24.98;;;;;;;;;;5082141;28;20048;-71
2022/11/14 13:48:33;;;;;;;38.00;24.90;;;;;;;;;;5082459;28;20056;-71
2022/11/14 13:51:02;;;;;;;37.03;24.17;;;;;;;;;;4982016;28;20212;-71
2022/11/14 13:53:30;;;;;;;37.72;24.83;;;;;;;;;;5000207;28;20061;-71
2022/11/14 13:56:01;;;;;;;39.67;23.45;;;;;;;;;;5036668;28;20048;-71
2022/11/14 13:58:37;;;;;;;36.95;23.00;;;;;;;;;;5085231;28;20079;-71
2022/11/14 14:01:11;;;;;;;36.95;24.35;;;;;;;;;;5080090;28;20047;-70
2022/11/14 14:03:38;;;;;;;;;;;;;;;;;;5081265;28;20074;-71
2022/11/14 14:06:12;;;;;;;39.10;23.73;;;;;;;;;;5081795;28;20379;-70
2022/11/14 14:08:53;;;;;;;37.45;23.50;;;;;;;;;;5080800;28;20384;-70
2022/11/14 14:11:36;;;;;;;37.55;24.17;;;;;;;;;;5077853;28;20047;-70
2022/11/14 14:14:06;;;;;;;39.60;23.63;;;;;;;;;;5078641;28;20722;-70
2022/11/14 14:16:37;;;;;;;37.88;23.00;;;;;;;;;;5080797;28;20052;-70
2022/11/14 14:19:09;;;;;;;40.10;22.90;;;;;;;;;;5080978;28;20040;-70
2022/11/14 14:21:42;;;;;;;37.92;23.73;;;;;;;;;;5065138;28;20059;-70
2022/11/14 14:24:09;;;;;;;;;;;;;;;;;;5079667;28;20587;-70
2022/11/14 14:26:43;;;;;;;40.05;24.65;;;;;;;;;;5083093;28;20345;-71
2022/11/14 14:29:15;;;;;;;38.17;23.58;;;;;;;;;;5079513;28;20047;-70
2022/11/14 14:31:43;;;;;;;36.38;22.50;;;;;;;;;;5063404;28;20079;-71
2022/11/14 14:34:24;;;;;;;38.92;23.33;;;;;;;;;;5062747;28;20047;-71
2022/11/14 14:36:52;;;;;;;37.97;22.70;;;;;;;;;;5082031;28;20048;-70
2022/11/14 14:39:21;;;;;;;43.00;24.70;;;;;;;;;;5076638;28;20048;-70
2022/11/14 14:41:50;;;;;;;41.88;25.73;;;;;;;;;;5062408;28;20067;-70
2022/11/14 14:44:19;;;;;;;48.78;28.17;;;;;;;;;;5078128;28;20052;-71
2022/11/14 14:46:48;;;;;;;48.67;26.58;;;;;;;;;;5078979;28;20491;-71
2022/11/14 14:49:19;;;;;;;41.33;23.98;;;;;;;;;;5077807;28;20062;-70